KBRO

Brownsville / South Padre Island International Airport

Brownsville, Texas, USA
METAR KBRO 160553Z AUTO 15009KT 10SM FEW019 29/27 A2998 RMK AO2 SLP151 T02890267 10322 20289 403610267 51007
Observed Flight Rules
Aug-16 @ 05:53 UTC (24 minutes ago) Visual Flight Rules
Wind Visibility Clouds
150° at 9 knots 10 miles
  • Few at 1,900' AGL
Temperatures Readings
Current 29°C / 84°F
Dewpoint 27°C / 81°F
Humidity 89%
Altimeter 29.98" Hg
Pressure 1015.1 hPa
Elevation 7
METAR KBRO 160553Z AUTO 15009KT 10SM FEW019 29/27 A2998 RMK AO2 SLP151 T02890267 10322 20289 403610267 51007
Observed Flight Rules
Aug-16 @ 05:53 UTC
(24 minutes ago)
VFR
Wind Visibility
150° at 9 knots 10 miles
Clouds
  • Few at 1,900' AGL
Temperature Dewpoint
29°C / 84°F 27°C / 81°F
Humidity Altimeter Pressure
89% 29.98" Hg 1015.1 hPa